sensor_id;sensor_type;location;lat;lon;timestamp;temperature;humidity
17331;DHT22;8783;52.448;4.638;2023-08-08T00:01:30;20.60;99.90
17331;DHT22;8783;52.448;4.638;2023-08-08T00:03:56;20.60;99.90
17331;DHT22;8783;52.448;4.638;2023-08-08T00:06:21;20.60;99.90
17331;DHT22;8783;52.448;4.638;2023-08-08T00:08:47;20.60;99.90
17331;DHT22;8783;52.448;4.638;2023-08-08T00:11:13;20.60;99.90
17331;DHT22;8783;52.448;4.638;2023-08-08T00:13:38;20.60;99.90
17331;DHT22;8783;52.448;4.638;2023-08-08T00:16:04;20.60;99.90
17331;DHT22;8783;52.448;4.638;2023-08-08T00:18:30;20.50;99.90
17331;DHT22;8783;52.448;4.638;2023-08-08T00:20:56;20.60;99.90
17331;DHT22;8783;52.448;4.638;2023-08-08T00:23:21;20.60;99.90
17331;DHT22;8783;52.448;4.638;2023-08-08T00:25:47;20.50;99.90
17331;DHT22;8783;52.448;4.638;2023-08-08T00:28:16;20.50;99.90
17331;DHT22;8783;52.448;4.638;2023-08-08T00:30:42;20.50;99.90
17331;DHT22;8783;52.448;4.638;2023-08-08T00:33:07;20.50;99.90
17331;DHT22;8783;52.448;4.638;2023-08-08T00:35:33;20.50;99.90
17331;DHT22;8783;52.448;4.638;2023-08-08T00:37:59;20.50;99.90
17331;DHT22;8783;52.448;4.638;2023-08-08T00:40:24;20.50;99.90
17331;DHT22;8783;52.448;4.638;2023-08-08T00:42:50;20.50;99.90
17331;DHT22;8783;52.448;4.638;2023-08-08T00:45:15;20.40;99.90
17331;DHT22;8783;52.448;4.638;2023-08-08T00:47:41;20.50;99.90
17331;DHT22;8783;52.448;4.638;2023-08-08T00:50:07;20.40;99.90
17331;DHT22;8783;52.448;4.638;2023-08-08T00:52:34;20.50;99.90
17331;DHT22;8783;52.448;4.638;2023-08-08T00:55:01;20.40;99.90
17331;DHT22;8783;52.448;4.638;2023-08-08T00:57:27;20.40;99.90
17331;DHT22;8783;52.448;4.638;2023-08-08T00:59:52;20.40;99.90
17331;DHT22;8783;52.448;4.638;2023-08-08T01:02:19;20.50;99.90
17331;DHT22;8783;52.448;4.638;2023-08-08T01:04:45;20.40;99.90
17331;DHT22;8783;52.448;4.638;2023-08-08T01:10:05;20.40;99.90
17331;DHT22;8783;52.448;4.638;2023-08-08T01:12:38;20.40;99.90
17331;DHT22;8783;52.448;4.638;2023-08-08T01:15:07;20.40;99.90
17331;DHT22;8783;52.448;4.638;2023-08-08T01:17:35;20.40;99.90
17331;DHT22;8783;52.448;4.638;2023-08-08T01:20:03;20.40;99.90
17331;DHT22;8783;52.448;4.638;2023-08-08T01:22:37;20.40;99.90
17331;DHT22;8783;52.448;4.638;2023-08-08T01:25:05;20.40;99.90
17331;DHT22;8783;52.448;4.638;2023-08-08T01:27:32;20.40;99.90
17331;DHT22;8783;52.448;4.638;2023-08-08T01:29:57;20.40;99.90
17331;DHT22;8783;52.448;4.638;2023-08-08T01:32:23;20.40;99.90
17331;DHT22;8783;52.448;4.638;2023-08-08T01:34:49;20.40;99.90
17331;DHT22;8783;52.448;4.638;2023-08-08T01:37:20;20.40;99.90
17331;DHT22;8783;52.448;4.638;2023-08-08T01:39:48;20.30;99.90
17331;DHT22;8783;52.448;4.638;2023-08-08T01:42:16;20.40;99.90
17331;DHT22;8783;52.448;4.638;2023-08-08T01:44:43;20.30;99.90
17331;DHT22;8783;52.448;4.638;2023-08-08T01:47:09;20.30;99.90
17331;DHT22;8783;52.448;4.638;2023-08-08T01:49:35;20.30;99.90
17331;DHT22;8783;52.448;4.638;2023-08-08T01:52:01;20.30;99.90
17331;DHT22;8783;52.448;4.638;2023-08-08T01:54:26;20.30;99.90
17331;DHT22;8783;52.448;4.638;2023-08-08T01:56:52;20.30;99.90
17331;DHT22;8783;52.448;4.638;2023-08-08T01:59:17;20.30;99.90
17331;DHT22;8783;52.448;4.638;2023-08-08T02:01:43;20.30;99.90
17331;DHT22;8783;52.448;4.638;2023-08-08T02:04:09;20.30;99.90
17331;DHT22;8783;52.448;4.638;2023-08-08T02:06:34;20.30;99.90
17331;DHT22;8783;52.448;4.638;2023-08-08T02:09:00;20.30;99.90
17331;DHT22;8783;52.448;4.638;2023-08-08T02:11:26;20.30;99.90
17331;DHT22;8783;52.448;4.638;2023-08-08T02:13:51;20.30;99.90
17331;DHT22;8783;52.448;4.638;2023-08-08T02:16:17;20.30;99.90
17331;DHT22;8783;52.448;4.638;2023-08-08T02:18:42;20.30;99.90
17331;DHT22;8783;52.448;4.638;2023-08-08T02:21:08;20.30;99.90
17331;DHT22;8783;52.448;4.638;2023-08-08T02:23:34;20.20;99.90
17331;DHT22;8783;52.448;4.638;2023-08-08T02:26:00;20.30;99.90
17331;DHT22;8783;52.448;4.638;2023-08-08T02:28:26;20.30;99.90
17331;DHT22;8783;52.448;4.638;2023-08-08T02:30:52;20.30;99.90
17331;DHT22;8783;52.448;4.638;2023-08-08T02:33:18;20.30;99.90
17331;DHT22;8783;52.448;4.638;2023-08-08T02:35:44;20.20;99.90
17331;DHT22;8783;52.448;4.638;2023-08-08T02:38:10;20.30;99.90
17331;DHT22;8783;52.448;4.638;2023-08-08T02:40:36;20.30;99.90
17331;DHT22;8783;52.448;4.638;2023-08-08T02:43:02;20.20;99.90
17331;DHT22;8783;52.448;4.638;2023-08-08T02:45:27;20.30;99.90
17331;DHT22;8783;52.448;4.638;2023-08-08T02:47:53;20.20;99.90
17331;DHT22;8783;52.448;4.638;2023-08-08T02:50:19;20.20;99.90
17331;DHT22;8783;52.448;4.638;2023-08-08T02:52:44;20.20;99.90
17331;DHT22;8783;52.448;4.638;2023-08-08T02:55:10;20.20;99.90
17331;DHT22;8783;52.448;4.638;2023-08-08T02:57:36;20.20;99.90
17331;DHT22;8783;52.448;4.638;2023-08-08T03:00:02;20.20;99.90
17331;DHT22;8783;52.448;4.638;2023-08-08T03:02:29;20.20;99.90
17331;DHT22;8783;52.448;4.638;2023-08-08T03:04:55;20.20;99.90
17331;DHT22;8783;52.448;4.638;2023-08-08T03:07:21;20.20;99.90
17331;DHT22;8783;52.448;4.638;2023-08-08T03:09:46;20.20;99.90
17331;DHT22;8783;52.448;4.638;2023-08-08T03:12:12;20.20;99.90
17331;DHT22;8783;52.448;4.638;2023-08-08T03:14:38;20.20;99.90
17331;DHT22;8783;52.448;4.638;2023-08-08T03:17:04;20.20;99.90
17331;DHT22;8783;52.448;4.638;2023-08-08T03:19:31;20.20;99.90
17331;DHT22;8783;52.448;4.638;2023-08-08T03:21:57;20.20;99.90
17331;DHT22;8783;52.448;4.638;2023-08-08T03:24:22;20.20;99.90
17331;DHT22;8783;52.448;4.638;2023-08-08T03:26:48;20.10;99.90
17331;DHT22;8783;52.448;4.638;2023-08-08T03:29:14;20.10;99.90
17331;DHT22;8783;52.448;4.638;2023-08-08T03:31:39;20.10;99.90
17331;DHT22;8783;52.448;4.638;2023-08-08T03:34:05;20.10;99.90
17331;DHT22;8783;52.448;4.638;2023-08-08T03:36:31;20.10;99.90
17331;DHT22;8783;52.448;4.638;2023-08-08T03:38:59;20.10;99.90
17331;DHT22;8783;52.448;4.638;2023-08-08T03:41:24;20.10;99.90
17331;DHT22;8783;52.448;4.638;2023-08-08T03:43:50;20.10;99.90
17331;DHT22;8783;52.448;4.638;2023-08-08T03:46:16;20.10;99.90
17331;DHT22;8783;52.448;4.638;2023-08-08T03:48:41;20.10;99.90
17331;DHT22;8783;52.448;4.638;2023-08-08T03:51:07;20.10;99.90
17331;DHT22;8783;52.448;4.638;2023-08-08T03:53:33;20.10;99.90
17331;DHT22;8783;52.448;4.638;2023-08-08T03:55:58;20.10;99.90
17331;DHT22;8783;52.448;4.638;2023-08-08T03:58:24;20.10;99.90
17331;DHT22;8783;52.448;4.638;2023-08-08T04:00:50;20.10;99.90
17331;DHT22;8783;52.448;4.638;2023-08-08T04:03:16;20.10;99.90
17331;DHT22;8783;52.448;4.638;2023-08-08T04:05:48;20.10;99.90
17331;DHT22;8783;52.448;4.638;2023-08-08T04:08:14;20.10;99.90
17331;DHT22;8783;52.448;4.638;2023-08-08T04:10:40;20.10;99.90
17331;DHT22;8783;52.448;4.638;2023-08-08T04:13:06;20.10;99.90
17331;DHT22;8783;52.448;4.638;2023-08-08T04:15:32;20.10;99.90
17331;DHT22;8783;52.448;4.638;2023-08-08T04:17:58;20.10;99.90
17331;DHT22;8783;52.448;4.638;2023-08-08T04:20:23;20.10;99.90
17331;DHT22;8783;52.448;4.638;2023-08-08T04:22:49;20.10;99.90
17331;DHT22;8783;52.448;4.638;2023-08-08T04:25:15;20.10;99.90
17331;DHT22;8783;52.448;4.638;2023-08-08T04:27:41;20.10;99.90
17331;DHT22;8783;52.448;4.638;2023-08-08T04:30:07;20.10;99.90
17331;DHT22;8783;52.448;4.638;2023-08-08T04:32:33;20.10;99.90
17331;DHT22;8783;52.448;4.638;2023-08-08T04:34:58;20.10;99.90
17331;DHT22;8783;52.448;4.638;2023-08-08T04:37:24;20.10;99.90
17331;DHT22;8783;52.448;4.638;2023-08-08T04:39:50;20.10;99.90
17331;DHT22;8783;52.448;4.638;2023-08-08T04:42:15;20.10;99.90
17331;DHT22;8783;52.448;4.638;2023-08-08T04:44:41;20.10;99.90
17331;DHT22;8783;52.448;4.638;2023-08-08T04:47:07;20.10;99.90
17331;DHT22;8783;52.448;4.638;2023-08-08T04:49:32;20.10;99.90
17331;DHT22;8783;52.448;4.638;2023-08-08T04:51:58;20.10;99.90
17331;DHT22;8783;52.448;4.638;2023-08-08T04:54:23;20.00;99.90
17331;DHT22;8783;52.448;4.638;2023-08-08T04:56:49;20.00;99.90
17331;DHT22;8783;52.448;4.638;2023-08-08T04:59:15;20.00;99.90
17331;DHT22;8783;52.448;4.638;2023-08-08T05:01:40;20.00;99.90
17331;DHT22;8783;52.448;4.638;2023-08-08T05:04:06;20.00;99.90
17331;DHT22;8783;52.448;4.638;2023-08-08T05:06:31;20.00;99.90
17331;DHT22;8783;52.448;4.638;2023-08-08T05:08:57;20.00;99.90
17331;DHT22;8783;52.448;4.638;2023-08-08T05:11:23;20.10;99.90
17331;DHT22;8783;52.448;4.638;2023-08-08T05:13:49;20.10;99.90
17331;DHT22;8783;52.448;4.638;2023-08-08T05:16:15;20.10;99.90
17331;DHT22;8783;52.448;4.638;2023-08-08T05:18:41;20.10;99.90
17331;DHT22;8783;52.448;4.638;2023-08-08T05:21:09;20.10;99.90
17331;DHT22;8783;52.448;4.638;2023-08-08T05:23:35;20.10;99.90
17331;DHT22;8783;52.448;4.638;2023-08-08T05:26:00;20.10;99.90
17331;DHT22;8783;52.448;4.638;2023-08-08T05:28:26;20.10;99.90
17331;DHT22;8783;52.448;4.638;2023-08-08T05:30:52;20.10;99.90
17331;DHT22;8783;52.448;4.638;2023-08-08T05:33:17;20.00;99.90
17331;DHT22;8783;52.448;4.638;2023-08-08T05:35:43;20.00;99.90
17331;DHT22;8783;52.448;4.638;2023-08-08T05:38:09;20.00;99.90
17331;DHT22;8783;52.448;4.638;2023-08-08T05:40:35;20.10;99.90
17331;DHT22;8783;52.448;4.638;2023-08-08T05:43:02;20.10;99.90
17331;DHT22;8783;52.448;4.638;2023-08-08T05:45:28;20.10;99.90
17331;DHT22;8783;52.448;4.638;2023-08-08T05:47:53;20.10;99.90
17331;DHT22;8783;52.448;4.638;2023-08-08T05:50:21;20.10;99.90
17331;DHT22;8783;52.448;4.638;2023-08-08T05:52:46;20.10;99.90
17331;DHT22;8783;52.448;4.638;2023-08-08T05:55:12;20.10;99.90
17331;DHT22;8783;52.448;4.638;2023-08-08T05:57:38;20.10;99.90
17331;DHT22;8783;52.448;4.638;2023-08-08T06:00:04;20.10;99.90
17331;DHT22;8783;52.448;4.638;2023-08-08T06:02:30;20.20;99.90
17331;DHT22;8783;52.448;4.638;2023-08-08T06:04:56;20.20;99.90
17331;DHT22;8783;52.448;4.638;2023-08-08T06:07:22;20.20;99.90
17331;DHT22;8783;52.448;4.638;2023-08-08T06:09:47;20.30;99.90
17331;DHT22;8783;52.448;4.638;2023-08-08T06:12:13;20.30;99.90
17331;DHT22;8783;52.448;4.638;2023-08-08T06:14:39;20.20;99.90
17331;DHT22;8783;52.448;4.638;2023-08-08T06:17:04;20.20;99.90
17331;DHT22;8783;52.448;4.638;2023-08-08T06:19:31;20.20;99.90
17331;DHT22;8783;52.448;4.638;2023-08-08T06:21:56;20.20;99.90
17331;DHT22;8783;52.448;4.638;2023-08-08T06:24:22;20.20;99.90
17331;DHT22;8783;52.448;4.638;2023-08-08T06:26:48;20.20;99.90
17331;DHT22;8783;52.448;4.638;2023-08-08T06:29:13;20.20;99.90
17331;DHT22;8783;52.448;4.638;2023-08-08T06:31:39;20.20;99.90
17331;DHT22;8783;52.448;4.638;2023-08-08T06:34:06;20.20;99.90
17331;DHT22;8783;52.448;4.638;2023-08-08T06:36:31;20.20;99.90
17331;DHT22;8783;52.448;4.638;2023-08-08T06:38:57;20.20;99.90
17331;DHT22;8783;52.448;4.638;2023-08-08T06:41:22;20.20;99.90
17331;DHT22;8783;52.448;4.638;2023-08-08T06:43:48;20.20;99.90
17331;DHT22;8783;52.448;4.638;2023-08-08T06:46:14;20.20;99.90
17331;DHT22;8783;52.448;4.638;2023-08-08T06:48:42;20.30;99.90
17331;DHT22;8783;52.448;4.638;2023-08-08T06:51:08;20.30;99.90
17331;DHT22;8783;52.448;4.638;2023-08-08T06:53:34;20.30;99.90
17331;DHT22;8783;52.448;4.638;2023-08-08T06:56:02;20.30;99.90
17331;DHT22;8783;52.448;4.638;2023-08-08T06:58:28;20.30;99.90
17331;DHT22;8783;52.448;4.638;2023-08-08T07:00:54;20.40;99.90
17331;DHT22;8783;52.448;4.638;2023-08-08T07:03:20;20.40;99.90
17331;DHT22;8783;52.448;4.638;2023-08-08T07:05:45;20.40;99.90
17331;DHT22;8783;52.448;4.638;2023-08-08T07:08:12;20.40;99.90
17331;DHT22;8783;52.448;4.638;2023-08-08T07:10:38;20.40;99.90
17331;DHT22;8783;52.448;4.638;2023-08-08T07:13:04;20.40;99.90
17331;DHT22;8783;52.448;4.638;2023-08-08T07:15:29;20.40;99.90
17331;DHT22;8783;52.448;4.638;2023-08-08T07:17:56;20.30;99.90
17331;DHT22;8783;52.448;4.638;2023-08-08T07:20:22;20.40;99.90
17331;DHT22;8783;52.448;4.638;2023-08-08T07:22:48;20.40;99.90
17331;DHT22;8783;52.448;4.638;2023-08-08T07:25:13;20.40;99.90
17331;DHT22;8783;52.448;4.638;2023-08-08T07:27:40;20.40;99.90
17331;DHT22;8783;52.448;4.638;2023-08-08T07:30:06;20.40;99.90
17331;DHT22;8783;52.448;4.638;2023-08-08T07:32:33;20.30;99.90
17331;DHT22;8783;52.448;4.638;2023-08-08T07:34:58;20.40;99.90
17331;DHT22;8783;52.448;4.638;2023-08-08T07:37:26;20.40;99.90
17331;DHT22;8783;52.448;4.638;2023-08-08T07:39:52;20.40;99.90
17331;DHT22;8783;52.448;4.638;2023-08-08T07:42:18;20.40;99.90
17331;DHT22;8783;52.448;4.638;2023-08-08T07:44:43;20.40;99.90
17331;DHT22;8783;52.448;4.638;2023-08-08T07:47:09;20.40;99.90
17331;DHT22;8783;52.448;4.638;2023-08-08T07:49:35;20.40;99.90
17331;DHT22;8783;52.448;4.638;2023-08-08T07:52:00;20.40;99.90
17331;DHT22;8783;52.448;4.638;2023-08-08T07:54:26;20.40;99.90
17331;DHT22;8783;52.448;4.638;2023-08-08T07:56:51;20.40;99.90
17331;DHT22;8783;52.448;4.638;2023-08-08T07:59:17;20.40;99.90
17331;DHT22;8783;52.448;4.638;2023-08-08T08:01:43;20.40;99.90
17331;DHT22;8783;52.448;4.638;2023-08-08T08:04:08;20.40;99.90
17331;DHT22;8783;52.448;4.638;2023-08-08T08:06:34;20.40;99.90
17331;DHT22;8783;52.448;4.638;2023-08-08T08:09:00;20.40;99.90
17331;DHT22;8783;52.448;4.638;2023-08-08T08:11:25;20.40;99.90
17331;DHT22;8783;52.448;4.638;2023-08-08T08:13:51;20.30;99.90
17331;DHT22;8783;52.448;4.638;2023-08-08T08:16:17;20.30;99.90
17331;DHT22;8783;52.448;4.638;2023-08-08T08:18:42;20.30;99.90
17331;DHT22;8783;52.448;4.638;2023-08-08T08:21:08;20.30;99.90
17331;DHT22;8783;52.448;4.638;2023-08-08T08:23:34;20.30;99.90
17331;DHT22;8783;52.448;4.638;2023-08-08T08:26:00;20.30;99.90
17331;DHT22;8783;52.448;4.638;2023-08-08T08:28:26;20.30;99.90
17331;DHT22;8783;52.448;4.638;2023-08-08T08:30:52;20.30;99.90
17331;DHT22;8783;52.448;4.638;2023-08-08T08:33:17;20.30;99.90
17331;DHT22;8783;52.448;4.638;2023-08-08T08:35:43;20.30;99.90
17331;DHT22;8783;52.448;4.638;2023-08-08T08:38:09;20.30;99.90
17331;DHT22;8783;52.448;4.638;2023-08-08T08:40:37;20.30;99.90
17331;DHT22;8783;52.448;4.638;2023-08-08T08:43:04;20.30;99.90
17331;DHT22;8783;52.448;4.638;2023-08-08T08:45:30;20.30;99.90
17331;DHT22;8783;52.448;4.638;2023-08-08T08:47:56;20.30;99.90
17331;DHT22;8783;52.448;4.638;2023-08-08T08:50:27;20.20;99.90
17331;DHT22;8783;52.448;4.638;2023-08-08T08:52:54;20.20;99.90
17331;DHT22;8783;52.448;4.638;2023-08-08T08:55:21;20.20;99.90
17331;DHT22;8783;52.448;4.638;2023-08-08T08:57:47;20.20;99.90
17331;DHT22;8783;52.448;4.638;2023-08-08T09:00:14;20.20;99.90
17331;DHT22;8783;52.448;4.638;2023-08-08T09:02:41;20.30;99.90
17331;DHT22;8783;52.448;4.638;2023-08-08T09:05:07;20.30;99.90
17331;DHT22;8783;52.448;4.638;2023-08-08T09:07:33;20.30;99.90
17331;DHT22;8783;52.448;4.638;2023-08-08T09:10:00;20.30;99.90
17331;DHT22;8783;52.448;4.638;2023-08-08T09:12:27;20.30;99.90
17331;DHT22;8783;52.448;4.638;2023-08-08T09:14:56;20.30;99.90
17331;DHT22;8783;52.448;4.638;2023-08-08T09:17:22;20.30;99.90
17331;DHT22;8783;52.448;4.638;2023-08-08T09:19:50;20.30;99.90
17331;DHT22;8783;52.448;4.638;2023-08-08T09:22:15;20.30;99.90
17331;DHT22;8783;52.448;4.638;2023-08-08T09:24:41;20.30;99.90
17331;DHT22;8783;52.448;4.638;2023-08-08T09:27:08;20.30;99.90
17331;DHT22;8783;52.448;4.638;2023-08-08T09:29:35;20.30;99.90
17331;DHT22;8783;52.448;4.638;2023-08-08T09:32:05;20.30;99.90
17331;DHT22;8783;52.448;4.638;2023-08-08T09:34:31;20.30;99.90
17331;DHT22;8783;52.448;4.638;2023-08-08T09:36:57;20.30;99.90
17331;DHT22;8783;52.448;4.638;2023-08-08T09:39:23;20.30;99.90
17331;DHT22;8783;52.448;4.638;2023-08-08T09:41:49;20.30;99.90
17331;DHT22;8783;52.448;4.638;2023-08-08T09:44:15;20.30;99.90
17331;DHT22;8783;52.448;4.638;2023-08-08T09:46:42;20.30;99.90
17331;DHT22;8783;52.448;4.638;2023-08-08T09:49:10;20.30;99.90
17331;DHT22;8783;52.448;4.638;2023-08-08T09:51:35;20.30;99.90
17331;DHT22;8783;52.448;4.638;2023-08-08T09:54:01;20.30;99.90
17331;DHT22;8783;52.448;4.638;2023-08-08T09:56:29;20.30;99.90
17331;DHT22;8783;52.448;4.638;2023-08-08T09:58:55;20.20;99.90
17331;DHT22;8783;52.448;4.638;2023-08-08T10:01:21;20.30;99.90
17331;DHT22;8783;52.448;4.638;2023-08-08T10:03:48;20.30;99.90
17331;DHT22;8783;52.448;4.638;2023-08-08T10:06:16;20.30;99.90
17331;DHT22;8783;52.448;4.638;2023-08-08T10:08:42;20.30;99.90
17331;DHT22;8783;52.448;4.638;2023-08-08T10:11:09;20.30;99.90
17331;DHT22;8783;52.448;4.638;2023-08-08T10:13:36;20.30;99.90
17331;DHT22;8783;52.448;4.638;2023-08-08T10:16:08;20.30;99.90
17331;DHT22;8783;52.448;4.638;2023-08-08T10:18:34;20.20;99.90
17331;DHT22;8783;52.448;4.638;2023-08-08T10:21:00;20.30;99.90
17331;DHT22;8783;52.448;4.638;2023-08-08T10:23:35;20.30;99.90
17331;DHT22;8783;52.448;4.638;2023-08-08T10:26:02;20.20;99.90
17331;DHT22;8783;52.448;4.638;2023-08-08T10:28:28;20.20;99.90
17331;DHT22;8783;52.448;4.638;2023-08-08T10:30:59;20.30;99.90
17331;DHT22;8783;52.448;4.638;2023-08-08T10:33:25;20.30;99.90
17331;DHT22;8783;52.448;4.638;2023-08-08T10:35:57;20.30;99.90
17331;DHT22;8783;52.448;4.638;2023-08-08T10:38:24;20.30;99.90
17331;DHT22;8783;52.448;4.638;2023-08-08T10:41:02;20.30;99.90
17331;DHT22;8783;52.448;4.638;2023-08-08T10:43:29;20.30;99.90
17331;DHT22;8783;52.448;4.638;2023-08-08T10:46:02;20.30;99.90
17331;DHT22;8783;52.448;4.638;2023-08-08T10:48:28;20.40;99.90
17331;DHT22;8783;52.448;4.638;2023-08-08T10:51:00;20.40;99.90
17331;DHT22;8783;52.448;4.638;2023-08-08T10:53:28;20.40;99.90
17331;DHT22;8783;52.448;4.638;2023-08-08T10:56:04;20.40;99.90
17331;DHT22;8783;52.448;4.638;2023-08-08T10:58:38;20.40;99.90
17331;DHT22;8783;52.448;4.638;2023-08-08T11:01:05;20.50;99.90
17331;DHT22;8783;52.448;4.638;2023-08-08T11:03:37;20.40;99.90
17331;DHT22;8783;52.448;4.638;2023-08-08T11:06:06;20.50;99.90
17331;DHT22;8783;52.448;4.638;2023-08-08T11:08:32;20.40;99.90
17331;DHT22;8783;52.448;4.638;2023-08-08T11:10:59;20.40;99.90
17331;DHT22;8783;52.448;4.638;2023-08-08T11:13:25;20.40;99.90
17331;DHT22;8783;52.448;4.638;2023-08-08T11:15:51;20.50;99.90
17331;DHT22;8783;52.448;4.638;2023-08-08T11:18:17;20.50;99.90
17331;DHT22;8783;52.448;4.638;2023-08-08T11:20:43;20.50;99.90
17331;DHT22;8783;52.448;4.638;2023-08-08T11:23:09;20.50;99.90
17331;DHT22;8783;52.448;4.638;2023-08-08T11:25:42;20.50;99.90
17331;DHT22;8783;52.448;4.638;2023-08-08T11:28:09;20.60;99.90
17331;DHT22;8783;52.448;4.638;2023-08-08T11:30:38;20.60;99.90
17331;DHT22;8783;52.448;4.638;2023-08-08T11:33:05;20.60;99.90
17331;DHT22;8783;52.448;4.638;2023-08-08T11:35:31;20.60;99.90
17331;DHT22;8783;52.448;4.638;2023-08-08T11:37:58;20.60;99.90
17331;DHT22;8783;52.448;4.638;2023-08-08T11:40:27;20.70;99.90
17331;DHT22;8783;52.448;4.638;2023-08-08T11:42:56;20.60;99.90
17331;DHT22;8783;52.448;4.638;2023-08-08T11:45:24;20.70;99.90
17331;DHT22;8783;52.448;4.638;2023-08-08T11:47:51;20.70;99.90
17331;DHT22;8783;52.448;4.638;2023-08-08T11:50:20;20.70;99.90
17331;DHT22;8783;52.448;4.638;2023-08-08T11:52:46;20.70;99.90
17331;DHT22;8783;52.448;4.638;2023-08-08T11:55:12;20.70;99.90
17331;DHT22;8783;52.448;4.638;2023-08-08T11:57:39;20.70;99.90
17331;DHT22;8783;52.448;4.638;2023-08-08T12:00:07;20.70;99.90
17331;DHT22;8783;52.448;4.638;2023-08-08T12:02:34;20.70;99.90
17331;DHT22;8783;52.448;4.638;2023-08-08T12:05:11;20.70;99.90
17331;DHT22;8783;52.448;4.638;2023-08-08T12:07:38;20.70;99.90
17331;DHT22;8783;52.448;4.638;2023-08-08T12:10:20;20.70;99.90
17331;DHT22;8783;52.448;4.638;2023-08-08T12:12:52;20.80;99.90
17331;DHT22;8783;52.448;4.638;2023-08-08T12:15:19;20.80;99.90
17331;DHT22;8783;52.448;4.638;2023-08-08T12:17:46;20.80;99.90
17331;DHT22;8783;52.448;4.638;2023-08-08T12:20:11;20.80;99.90
17331;DHT22;8783;52.448;4.638;2023-08-08T12:22:38;20.80;99.90
17331;DHT22;8783;52.448;4.638;2023-08-08T12:25:04;20.80;99.90
17331;DHT22;8783;52.448;4.638;2023-08-08T12:27:30;20.80;99.90
17331;DHT22;8783;52.448;4.638;2023-08-08T12:29:56;20.80;99.90
17331;DHT22;8783;52.448;4.638;2023-08-08T12:32:24;20.80;99.90
17331;DHT22;8783;52.448;4.638;2023-08-08T12:34:52;20.80;99.90
17331;DHT22;8783;52.448;4.638;2023-08-08T12:37:17;20.80;99.90
17331;DHT22;8783;52.448;4.638;2023-08-08T12:39:43;20.80;99.90
17331;DHT22;8783;52.448;4.638;2023-08-08T12:42:09;20.80;99.90
17331;DHT22;8783;52.448;4.638;2023-08-08T12:44:34;20.80;99.90
17331;DHT22;8783;52.448;4.638;2023-08-08T12:47:00;20.80;99.90
17331;DHT22;8783;52.448;4.638;2023-08-08T12:49:26;20.80;99.90
17331;DHT22;8783;52.448;4.638;2023-08-08T12:51:52;20.80;99.90
17331;DHT22;8783;52.448;4.638;2023-08-08T12:54:21;20.80;99.90
17331;DHT22;8783;52.448;4.638;2023-08-08T12:56:46;20.80;99.90
17331;DHT22;8783;52.448;4.638;2023-08-08T12:59:12;20.80;99.90
17331;DHT22;8783;52.448;4.638;2023-08-08T13:01:38;20.80;99.90
17331;DHT22;8783;52.448;4.638;2023-08-08T13:04:03;20.80;99.90
17331;DHT22;8783;52.448;4.638;2023-08-08T13:06:29;20.80;99.90
17331;DHT22;8783;52.448;4.638;2023-08-08T13:08:55;20.80;99.90
17331;DHT22;8783;52.448;4.638;2023-08-08T13:11:21;20.80;99.90
17331;DHT22;8783;52.448;4.638;2023-08-08T13:13:48;20.80;99.90
17331;DHT22;8783;52.448;4.638;2023-08-08T13:16:13;20.80;99.90
17331;DHT22;8783;52.448;4.638;2023-08-08T13:18:39;20.80;99.90
17331;DHT22;8783;52.448;4.638;2023-08-08T13:21:05;20.80;99.90
17331;DHT22;8783;52.448;4.638;2023-08-08T13:23:32;20.80;99.90
17331;DHT22;8783;52.448;4.638;2023-08-08T13:25:57;20.80;99.90
17331;DHT22;8783;52.448;4.638;2023-08-08T13:28:23;20.80;99.90
17331;DHT22;8783;52.448;4.638;2023-08-08T13:30:49;20.80;99.90
17331;DHT22;8783;52.448;4.638;2023-08-08T13:33:14;20.80;99.90
17331;DHT22;8783;52.448;4.638;2023-08-08T13:35:40;20.80;99.90
17331;DHT22;8783;52.448;4.638;2023-08-08T13:38:06;20.80;99.90
17331;DHT22;8783;52.448;4.638;2023-08-08T13:40:33;20.80;99.90
17331;DHT22;8783;52.448;4.638;2023-08-08T13:42:58;20.80;99.90
17331;DHT22;8783;52.448;4.638;2023-08-08T13:45:24;20.80;99.90
17331;DHT22;8783;52.448;4.638;2023-08-08T13:47:50;20.80;99.90
17331;DHT22;8783;52.448;4.638;2023-08-08T13:50:15;20.80;99.90
17331;DHT22;8783;52.448;4.638;2023-08-08T13:52:41;20.80;99.90
17331;DHT22;8783;52.448;4.638;2023-08-08T13:55:08;20.80;99.90
17331;DHT22;8783;52.448;4.638;2023-08-08T13:57:34;20.80;99.90
17331;DHT22;8783;52.448;4.638;2023-08-08T14:00:00;20.80;99.90
17331;DHT22;8783;52.448;4.638;2023-08-08T14:02:26;20.80;99.90
17331;DHT22;8783;52.448;4.638;2023-08-08T14:04:51;20.80;99.90
17331;DHT22;8783;52.448;4.638;2023-08-08T14:07:18;20.80;99.90
17331;DHT22;8783;52.448;4.638;2023-08-08T14:09:44;20.80;99.90
17331;DHT22;8783;52.448;4.638;2023-08-08T14:12:10;20.80;99.90
17331;DHT22;8783;52.448;4.638;2023-08-08T14:14:35;20.80;99.90
17331;DHT22;8783;52.448;4.638;2023-08-08T14:17:01;20.90;99.90
17331;DHT22;8783;52.448;4.638;2023-08-08T14:19:27;20.90;99.90
17331;DHT22;8783;52.448;4.638;2023-08-08T14:21:52;20.90;99.90
17331;DHT22;8783;52.448;4.638;2023-08-08T14:24:18;20.90;99.90
17331;DHT22;8783;52.448;4.638;2023-08-08T14:26:44;20.90;99.90
17331;DHT22;8783;52.448;4.638;2023-08-08T14:29:11;20.90;99.90
17331;DHT22;8783;52.448;4.638;2023-08-08T14:31:36;20.90;99.90
17331;DHT22;8783;52.448;4.638;2023-08-08T14:34:02;20.90;99.90
17331;DHT22;8783;52.448;4.638;2023-08-08T14:36:28;20.90;99.90
17331;DHT22;8783;52.448;4.638;2023-08-08T14:38:54;20.90;99.90
17331;DHT22;8783;52.448;4.638;2023-08-08T14:41:20;20.90;99.90
17331;DHT22;8783;52.448;4.638;2023-08-08T14:43:46;20.90;99.90
17331;DHT22;8783;52.448;4.638;2023-08-08T14:46:11;20.90;99.90
17331;DHT22;8783;52.448;4.638;2023-08-08T14:48:37;20.90;99.90
17331;DHT22;8783;52.448;4.638;2023-08-08T14:51:03;20.90;99.90
17331;DHT22;8783;52.448;4.638;2023-08-08T14:53:29;20.90;99.90
17331;DHT22;8783;52.448;4.638;2023-08-08T14:55:54;20.90;99.90
17331;DHT22;8783;52.448;4.638;2023-08-08T14:58:20;20.90;99.90
17331;DHT22;8783;52.448;4.638;2023-08-08T15:00:46;20.90;99.90
17331;DHT22;8783;52.448;4.638;2023-08-08T15:03:13;20.90;99.90
17331;DHT22;8783;52.448;4.638;2023-08-08T15:05:39;20.90;99.90
17331;DHT22;8783;52.448;4.638;2023-08-08T15:08:06;20.90;99.90
17331;DHT22;8783;52.448;4.638;2023-08-08T15:10:31;20.90;99.90
17331;DHT22;8783;52.448;4.638;2023-08-08T15:12:57;20.90;99.90
17331;DHT22;8783;52.448;4.638;2023-08-08T15:15:23;20.90;99.90
17331;DHT22;8783;52.448;4.638;2023-08-08T15:17:50;20.90;99.90
17331;DHT22;8783;52.448;4.638;2023-08-08T15:20:17;20.90;99.90
17331;DHT22;8783;52.448;4.638;2023-08-08T15:22:42;20.90;99.90
17331;DHT22;8783;52.448;4.638;2023-08-08T15:25:14;20.90;99.90
17331;DHT22;8783;52.448;4.638;2023-08-08T15:27:42;21.00;99.90
17331;DHT22;8783;52.448;4.638;2023-08-08T15:30:08;21.00;99.90
17331;DHT22;8783;52.448;4.638;2023-08-08T15:32:37;21.00;99.90
17331;DHT22;8783;52.448;4.638;2023-08-08T15:35:03;21.00;99.90
17331;DHT22;8783;52.448;4.638;2023-08-08T15:37:28;21.00;99.90
17331;DHT22;8783;52.448;4.638;2023-08-08T15:39:54;21.00;99.90
17331;DHT22;8783;52.448;4.638;2023-08-08T15:42:20;21.00;99.90